This is the latest recevied weather packets stored in our database for station/object YF9UAG-15. If no packets are shown the sender has not sent any weather packets the latest 10 day(s).
| Time | Temp. | Humidity | Pressure | Rain* | Wind** | Luminosity | Snow |
|---|---|---|---|---|---|---|---|
| 1778111521 | 36.67° C | 69% | 1007.9 hPa | - | - | - | - |
| 1778111400 | 36.67° C | 68% | 1007.8 hPa | - | - | - | - |
| 1778111279 | 36.67° C | 70% | 1007.8 hPa | - | - | - | - |
| 1778111158 | 37.22° C | 67% | 1008 hPa | - | - | - | - |
| 1778111037 | 37.78° C | 67% | 1008 hPa | - | - | - | - |
| 1778110916 | 36.67° C | 72% | 1008 hPa | - | - | - | - |
| 1778110795 | 36.67° C | 73% | 1008 hPa | - | - | - | - |
| 1778110674 | 35° C | 82% | 1008 hPa | - | - | - | - |
| 1778110553 | 33.89° C | 88% | 1008 hPa | - | - | - | - |
| 1778110432 | 32.22° C | 96% | 1008 hPa | - | - | - | - |
| 1778110312 | 31.67° C | 98% | 1008 hPa | - | - | - | - |
| 1778110191 | 31.67° C | 99% | 1008 hPa | - | - | - | - |
| 1778110070 | 31.67° C | 99% | 1008.1 hPa | - | - | - | - |
| 1778109949 | 31.11° C | 99% | 1008 hPa | - | - | - | - |
| 1778109828 | 31.11° C | 99% | 1008.1 hPa | - | - | - | - |
| 1778109707 | 31.11° C | 100% | 1008.1 hPa | - | - | - | - |
| 1778109586 | 31.11° C | 100% | 1008.1 hPa | - | - | - | - |
| 1778109465 | 31.11° C | 100% | 1008.1 hPa | - | - | - | - |
| 1778109344 | 31.11° C | 100% | 1008 hPa | - | - | - | - |
| 1778109223 | 31.11° C | 100% | 1008.1 hPa | - | - | - | - |
| 1778109102 | 31.11° C | 100% | 1008.1 hPa | - | - | - | - |
| 1778108981 | 30.56° C | 100% | 1008.1 hPa | - | - | - | - |
| 1778108860 | 30.56° C | 100% | 1008.1 hPa | - | - | - | - |
| 1778108739 | 30° C | 100% | 1008.1 hPa | - | - | - | - |
| 1778108618 | 30° C | 100% | 1008 hPa | - | - | - | - |
* Rain since midnight (hover to see other rain measurements)
** Current wind speed in m/s (hover to see current wind gust speed)